Time;durP1;ratioP1;P1;durP2;ratioP2;P2;SDS_P1;SDS_P2;PMS_P1;PMS_P2;Temp;Humidity;BMP_temperature;BMP_pressure;BME280_temperature;BME280_humidity;BME280_pressure;Samples;Min_cycle;Max_cycle;Signal;HPM_P1;HPM_P2
2023/01/12 00:01:29;;;;;;;3.92;2.47;;;6.40;99.90;;;;;;5032028;28;20025;-54
2023/01/12 00:03:55;;;;;;;4.53;2.95;;;6.40;99.90;;;;;;5032036;28;20026;-54
2023/01/12 00:06:22;;;;;;;3.10;2.75;;;6.40;99.90;;;;;;5030619;28;20028;-52
2023/01/12 00:08:50;;;;;;;6.50;2.58;;;6.40;99.90;;;;;;5031951;28;20034;-57
2023/01/12 00:11:17;;;;;;;4.13;3.00;;;6.40;99.90;;;;;;5031721;28;20052;-52
2023/01/12 00:13:42;;;;;;;3.83;2.70;;;6.40;99.90;;;;;;5031876;28;20092;-52
2023/01/12 00:19:01;;;;;;;5.82;3.05;;;6.40;99.90;;;;;;5032023;28;20082;-53
2023/01/12 00:21:27;;;;;;;3.40;2.95;;;6.40;99.90;;;;;;5031831;28;20030;-55
2023/01/12 00:23:53;;;;;;;5.00;2.90;;;6.30;99.90;;;;;;5031854;28;20112;-55
2023/01/12 00:26:19;;;;;;;5.00;3.03;;;6.40;99.90;;;;;;5031787;28;20391;-54
2023/01/12 00:28:44;;;;;;;4.38;3.00;;;6.40;99.90;;;;;;5033177;28;20040;-53
2023/01/12 00:31:10;;;;;;;3.92;2.80;;;6.40;99.90;;;;;;5035663;28;20097;-54
2023/01/12 00:33:38;;;;;;;4.70;3.00;;;6.40;99.90;;;;;;5035677;28;20108;-53
2023/01/12 00:36:18;;;;;;;6.03;3.03;;;6.50;99.90;;;;;;5035606;28;20461;-50
2023/01/12 00:38:44;;;;;;;3.65;3.00;;;6.40;99.90;;;;;;5035547;28;20112;-53
2023/01/12 00:45:20;;;;;;;5.82;2.78;;;6.50;99.90;;;;;;5035485;28;20457;-53
2023/01/12 00:46:42;;;;;;;6.32;3.10;;;6.50;99.90;;;;;;5035419;28;20107;-55
2023/01/12 00:49:08;;;;;;;3.00;2.72;;;6.50;99.90;;;;;;5035372;28;20033;-52
2023/01/12 00:51:33;;;;;;;2.78;2.58;;;6.40;99.90;;;;;;5034047;28;20029;-52
2023/01/12 00:54:03;;;;;;;5.28;3.03;;;6.40;99.90;;;;;;5035092;28;20034;-54
2023/01/12 00:56:32;;;;;;;3.17;2.85;;;6.40;99.90;;;;;;5035316;28;20052;-54
2023/01/12 00:58:58;;;;;;;4.85;3.30;;;6.40;99.90;;;;;;5035182;28;20129;-56
2023/01/12 01:01:23;;;;;;;3.35;3.00;;;6.30;99.90;;;;;;5035298;28;20105;-51
2023/01/12 01:03:49;;;;;;;2.72;2.53;;;6.40;99.90;;;;;;5035066;28;20048;-53
2023/01/12 01:06:15;;;;;;;7.57;4.82;;;6.30;99.90;;;;;;5035024;28;20023;-51
2023/01/12 01:08:40;;;;;;;3.97;2.72;;;6.40;99.90;;;;;;5034914;28;20453;-53
2023/01/12 01:11:09;;;;;;;8.20;4.65;;;6.40;99.90;;;;;;5035014;28;20080;-50
2023/01/12 01:13:36;;;;;;;5.10;2.72;;;6.50;99.90;;;;;;5034936;28;20080;-57
2023/01/12 01:16:03;;;;;;;4.18;2.50;;;6.50;99.90;;;;;;5034990;28;20120;-49
2023/01/12 01:18:29;;;;;;;3.65;2.70;;;6.50;99.90;;;;;;5034793;28;20488;-51
2023/01/12 01:20:55;;;;;;;5.80;2.70;;;6.50;99.90;;;;;;5034885;28;20041;-52
2023/01/12 01:23:23;;;;;;;6.72;2.83;;;6.50;99.90;;;;;;5034659;28;20029;-55
2023/01/12 01:25:49;;;;;;;5.90;2.90;;;6.50;99.90;;;;;;5034689;28;20113;-50
2023/01/12 01:28:16;;;;;;;3.30;2.75;;;6.60;99.90;;;;;;5034654;28;20100;-52
2023/01/12 01:30:42;;;;;;;4.43;2.80;;;6.50;99.90;;;;;;5034734;28;20075;-54
2023/01/12 01:33:08;;;;;;;3.20;2.90;;;6.50;99.90;;;;;;5033335;28;20017;-55
2023/01/12 01:35:35;;;;;;;4.43;3.15;;;6.50;99.90;;;;;;5034556;28;20029;-53
2023/01/12 01:38:00;;;;;;;11.73;5.38;;;6.40;99.90;;;;;;5034413;28;20026;-56
2023/01/12 01:40:26;;;;;;;5.05;2.92;;;6.40;99.90;;;;;;5034074;28;20032;-52
2023/01/12 01:42:52;;;;;;;4.03;2.90;;;6.40;99.90;;;;;;5034326;28;20032;-52
2023/01/12 01:45:17;;;;;;;5.35;3.10;;;6.40;99.90;;;;;;5034135;28;20054;-55
2023/01/12 01:47:47;;;;;;;3.78;2.95;;;6.30;99.90;;;;;;5034333;28;20021;-54
2023/01/12 01:50:16;;;;;;;5.85;3.20;;;6.30;99.90;;;;;;5034320;28;20022;-53
2023/01/12 01:52:44;;;;;;;4.90;2.90;;;6.30;99.90;;;;;;5034190;28;20384;-52
2023/01/12 01:55:11;;;;;;;2.95;2.75;;;6.30;99.90;;;;;;5034265;28;20029;-51
2023/01/12 01:57:57;;;;;;;6.32;3.15;;;6.20;99.90;;;;;;5034033;28;20035;-51
2023/01/12 02:00:26;;;;;;;4.03;2.67;;;6.30;99.90;;;;;;5034139;28;20467;-52
2023/01/12 02:02:53;;;;;;;3.10;2.80;;;6.20;99.90;;;;;;5034053;28;20033;-50
2023/01/12 02:05:24;;;;;;;7.88;3.17;;;6.10;99.90;;;;;;5033729;28;20029;-52
2023/01/12 02:07:50;;;;;;;4.10;2.80;;;6.00;99.90;;;;;;5033942;28;20022;-55
2023/01/12 02:10:17;;;;;;;4.50;3.28;;;5.90;99.90;;;;;;5033881;28;20018;-54
2023/01/12 02:18:32;;;;;;;3.80;2.80;;;5.70;99.90;;;;;;5033802;28;20037;-53
2023/01/12 02:21:15;;;;;;;3.33;2.53;;;5.60;99.90;;;;;;5033718;28;20026;-52
2023/01/12 02:24:05;;;;;;;3.65;2.78;;;5.50;99.90;;;;;;5033608;28;20114;-55
2023/01/12 02:27:04;;;;;;;4.88;2.50;;;5.40;99.90;;;;;;5033646;28;20464;-52
2023/01/12 02:29:41;;;;;;;7.45;3.60;;;5.40;99.90;;;;;;5033551;28;20021;-50
2023/01/12 02:32:30;;;;;;;5.82;2.50;;;5.40;99.90;;;;;;5033330;28;20036;-52
2023/01/12 02:35:04;;;;;;;8.52;2.80;;;5.40;99.90;;;;;;5013716;28;20033;-50
2023/01/12 02:37:51;;;;;;;11.65;2.88;;;5.30;99.90;;;;;;5033343;28;20106;-52
2023/01/12 02:40:51;;;;;;;3.80;2.38;;;5.30;99.90;;;;;;5033345;28;20053;-53
2023/01/12 02:43:28;;;;;;;5.38;2.50;;;5.30;99.90;;;;;;5033005;28;20037;-54
2023/01/12 02:46:00;;;;;;;7.50;2.70;;;5.40;99.90;;;;;;5032988;28;20033;-52
2023/01/12 02:48:57;;;;;;;4.15;3.22;;;5.40;99.90;;;;;;5031927;28;20032;-55
2023/01/12 02:51:28;;;;;;;2.60;2.40;;;5.50;99.90;;;;;;5032375;28;20017;-53
2023/01/12 02:54:16;;;;;;;6.30;2.85;;;5.60;99.90;;;;;;5033058;28;20558;-55
2023/01/12 02:56:50;;;;;;;4.18;2.33;;;5.60;99.90;;;;;;5032932;28;20029;-54
2023/01/12 02:59:28;;;;;;;4.22;2.58;;;5.60;99.90;;;;;;5033010;28;20025;-54
2023/01/12 03:02:05;;;;;;;6.55;2.20;;;5.60;99.90;;;;;;5033021;28;20103;-53
2023/01/12 03:04:32;;;;;;;13.23;3.08;;;5.60;99.90;;;;;;5032757;28;20472;-54
2023/01/12 03:06:58;;;;;;;3.47;2.45;;;5.50;99.90;;;;;;5032882;28;20085;-54
2023/01/12 03:09:32;;;;;;;5.97;2.45;;;5.40;99.90;;;;;;5032762;28;20029;-54
2023/01/12 03:12:05;;;;;;;3.70;2.10;;;5.40;99.90;;;;;;5032659;28;20667;-53
2023/01/12 03:14:34;;;;;;;7.70;2.60;;;5.40;99.90;;;;;;5032413;28;20029;-50
2023/01/12 03:17:05;;;;;;;3.60;2.47;;;5.40;99.90;;;;;;5032251;28;20449;-52
2023/01/12 03:19:32;;;;;;;3.33;2.13;;;5.40;99.90;;;;;;5032399;28;20025;-51
2023/01/12 03:22:06;;;;;;;4.20;2.47;;;5.30;99.90;;;;;;5032281;28;20036;-52
2023/01/12 03:24:38;;;;;;;6.65;2.33;;;5.20;99.90;;;;;;5032570;28;20376;-55
2023/01/12 03:27:11;;;;;;;3.47;2.40;;;5.20;99.90;;;;;;5031285;28;20408;-53
2023/01/12 03:29:43;;;;;;;6.57;2.30;;;5.10;99.90;;;;;;5032569;28;20428;-52
2023/01/12 03:32:09;;;;;;;3.63;2.30;;;5.00;99.90;;;;;;5032419;28;20453;-53
2023/01/12 03:34:35;;;;;;;6.50;2.50;;;4.80;99.90;;;;;;5032263;28;20072;-54
2023/01/12 03:37:07;;;;;;;2.67;2.40;;;4.80;99.90;;;;;;5032390;28;20022;-51
2023/01/12 03:39:57;;;;;;;5.60;2.47;;;4.70;99.90;;;;;;5032265;28;20109;-56
2023/01/12 03:42:28;;;;;;;2.83;2.58;;;4.60;99.90;;;;;;5032320;28;20029;-53
2023/01/12 03:45:13;;;;;;;4.82;2.95;;;4.50;99.90;;;;;;5031978;28;20426;-54
2023/01/12 03:47:41;;;;;;;5.28;2.35;;;4.40;99.90;;;;;;5032174;28;20388;-51
2023/01/12 03:50:13;;;;;;;7.45;2.47;;;4.30;99.90;;;;;;5032171;28;20353;-54
2023/01/12 03:52:41;;;;;;;3.63;2.65;;;4.20;99.90;;;;;;5032181;28;20025;-52
2023/01/12 03:55:10;;;;;;;12.82;8.45;;;4.10;99.90;;;;;;5032184;28;20026;-53
2023/01/12 03:57:37;;;;;;;6.15;3.97;;;4.00;99.90;;;;;;5031970;28;20041;-52
2023/01/12 04:00:06;;;;;;;8.30;3.85;;;3.90;99.90;;;;;;5032085;28;20044;-50
2023/01/12 04:02:32;;;;;;;4.50;2.40;;;3.80;99.90;;;;;;5031843;28;20025;-54
2023/01/12 04:04:58;;;;;;;15.25;10.95;;;3.80;99.90;;;;;;5031991;28;20038;-53
2023/01/12 04:07:24;;;;;;;13.20;7.95;;;3.80;99.90;;;;;;5031833;28;20089;-52
2023/01/12 04:09:49;;;;;;;4.75;2.55;;;3.70;99.90;;;;;;5031873;28;20014;-50
2023/01/12 04:12:15;;;;;;;4.43;2.85;;;3.70;99.90;;;;;;5031999;28;20021;-57
2023/01/12 04:14:43;;;;;;;3.97;2.70;;;3.60;99.90;;;;;;5031933;28;20461;-52
2023/01/12 04:17:12;;;;;;;3.38;2.97;;;3.50;99.90;;;;;;5031772;28;20053;-53
2023/01/12 04:19:37;;;;;;;5.63;2.58;;;3.40;99.90;;;;;;5031795;28;20033;-52
2023/01/12 04:24:47;;;;;;;3.78;2.72;;;3.30;99.90;;;;;;5031980;28;20423;-52
2023/01/12 04:27:16;;;;;;;3.78;3.00;;;3.20;99.90;;;;;;5031764;28;20025;-52
2023/01/12 04:29:42;;;;;;;3.15;2.83;;;3.10;99.90;;;;;;5031848;28;20029;-50
2023/01/12 04:32:08;;;;;;;5.88;3.30;;;3.00;99.90;;;;;;5031732;28;20026;-53
2023/01/12 04:34:34;;;;;;;24.30;10.85;;;2.90;99.90;;;;;;5031646;28;20075;-51
2023/01/12 04:37:00;;;;;;;4.40;3.17;;;2.80;99.90;;;;;;5030382;28;20056;-54
2023/01/12 04:39:26;;;;;;;4.25;3.63;;;2.80;99.90;;;;;;5031703;28;20052;-51
2023/01/12 04:41:52;;;;;;;3.03;2.70;;;2.70;99.90;;;;;;5031697;28;20053;-52
2023/01/12 04:44:18;;;;;;;3.20;2.60;;;2.70;99.90;;;;;;5031525;28;20026;-51
2023/01/12 04:46:43;;;;;;;74.40;35.53;;;2.80;99.90;;;;;;5031544;28;20462;-52
2023/01/12 04:49:09;;;;;;;9.05;6.50;;;2.70;99.90;;;;;;5031536;28;20083;-54
2023/01/12 04:51:35;;;;;;;10.00;5.68;;;2.60;99.90;;;;;;5031529;28;20029;-50
2023/01/12 04:54:00;;;;;;;65.50;28.25;;;2.60;99.90;;;;;;5031297;28;20021;-51
2023/01/12 04:56:26;;;;;;;204.10;63.17;;;2.50;99.90;;;;;;5031087;28;20443;-52
2023/01/12 04:58:58;;;;;;;103.03;37.10;;;2.40;99.90;;;;;;5031172;28;20021;-50
2023/01/12 05:01:25;;;;;;;68.93;25.63;;;2.40;99.90;;;;;;5031312;28;20476;-52
2023/01/12 05:03:56;;;;;;;69.53;24.65;;;2.40;99.90;;;;;;5031265;28;20035;-52
2023/01/12 05:06:23;;;;;;;45.60;18.38;;;2.30;99.90;;;;;;5030745;28;20026;-52
2023/01/12 05:11:33;;;;;;;30.00;10.63;;;2.20;99.90;;;;;;5030461;28;20071;-51
2023/01/12 05:13:59;;;;;;;34.30;12.82;;;2.10;99.90;;;;;;5030589;28;20477;-49
2023/01/12 05:16:26;;;;;;;26.50;8.73;;;2.10;99.90;;;;;;5034995;28;20364;-54
2023/01/12 05:18:53;;;;;;;11.43;5.55;;;2.00;99.90;;;;;;5033566;28;20524;-53
2023/01/12 05:21:21;;;;;;;12.07;6.68;;;2.00;99.90;;;;;;5034819;28;20503;-51
2023/01/12 05:23:47;;;;;;;6.85;4.63;;;2.00;99.90;;;;;;5034796;28;20424;-50
2023/01/12 05:26:13;;;;;;;13.85;6.32;;;1.90;99.90;;;;;;5034567;28;20401;-50
2023/01/12 05:28:39;;;;;;;8.70;4.68;;;1.90;99.90;;;;;;5034641;28;20418;-51
2023/01/12 05:31:11;;;;;;;6.70;4.85;;;1.90;99.90;;;;;;5034650;28;20100;-54
2023/01/12 05:33:38;;;;;;;7.40;5.05;;;1.80;99.90;;;;;;5034632;28;20049;-52
2023/01/12 05:36:09;;;;;;;6.53;4.80;;;1.80;99.90;;;;;;5034684;28;20065;-52
2023/01/12 05:38:35;;;;;;;6.93;4.90;;;1.80;99.90;;;;;;5034492;28;20025;-49
2023/01/12 05:41:02;;;;;;;9.98;3.90;;;1.70;99.90;;;;;;5034399;28;20028;-52
2023/01/12 05:46:13;;;;;;;6.85;4.32;;;1.60;99.90;;;;;;5034242;28;20052;-56
2023/01/12 05:48:39;;;;;;;6.13;3.67;;;1.60;99.90;;;;;;5034365;28;20025;-50
2023/01/12 05:51:07;;;;;;;4.55;3.55;;;1.50;99.90;;;;;;5034205;28;20096;-55
2023/01/12 05:53:33;;;;;;;8.32;3.75;;;1.50;99.90;;;;;;5034109;28;20087;-50
2023/01/12 05:56:09;;;;;;;9.88;4.93;;;1.40;99.90;;;;;;5034267;28;20443;-49
2023/01/12 05:58:35;;;;;;;4.82;3.58;;;1.40;99.90;;;;;;5034235;28;20053;-50
2023/01/12 06:01:06;;;;;;;11.75;4.70;;;1.40;99.90;;;;;;5034088;28;20465;-53
2023/01/12 06:03:31;;;;;;;25.58;13.13;;;1.40;99.90;;;;;;5034103;28;20071;-51
2023/01/12 06:05:57;;;;;;;14.68;7.40;;;1.40;99.90;;;;;;5034043;28;20033;-54
2023/01/12 06:08:24;;;;;;;10.88;5.07;;;1.50;99.90;;;;;;5033944;28;20033;-52
2023/01/12 06:10:50;;;;;;;8.13;5.55;;;1.60;99.90;;;;;;5033749;28;20029;-54
2023/01/12 06:16:04;;;;;;;10.45;5.93;;;1.80;99.90;;;;;;5033477;28;20036;-53
2023/01/12 06:18:34;;;;;;;7.93;5.78;;;1.80;99.90;;;;;;5033640;28;20346;-53
2023/01/12 06:21:01;;;;;;;13.65;4.40;;;1.90;99.90;;;;;;5028878;28;20040;-52
2023/01/12 06:23:27;;;;;;;10.30;6.00;;;1.80;99.90;;;;;;5032743;28;20116;-50
2023/01/12 06:25:53;;;;;;;10.55;6.60;;;1.70;99.90;;;;;;5030836;28;20628;-52
2023/01/12 06:28:18;;;;;;;7.60;4.38;;;1.70;99.90;;;;;;5033574;28;20208;-51
2023/01/12 06:30:44;;;;;;;6.40;4.55;;;1.60;99.90;;;;;;5033128;28;20397;-49
2023/01/12 06:33:10;;;;;;;8.68;4.28;;;1.60;99.90;;;;;;5034020;28;20025;-53
2023/01/12 06:35:35;;;;;;;13.15;5.72;;;1.60;99.90;;;;;;5033080;28;20033;-52
2023/01/12 06:38:01;;;;;;;11.13;5.38;;;1.50;99.90;;;;;;5032798;28;20063;-52
2023/01/12 06:40:28;;;;;;;11.63;8.05;;;1.50;99.90;;;;;;5032758;28;20041;-53
2023/01/12 06:42:53;;;;;;;8.52;4.18;;;1.50;99.90;;;;;;5033368;28;20026;-48
2023/01/12 06:45:19;;;;;;;5.40;4.68;;;1.60;99.90;;;;;;5032752;28;20064;-49
2023/01/12 06:47:47;;;;;;;4.82;3.97;;;1.50;99.90;;;;;;5033014;28;20365;-56
2023/01/12 06:50:13;;;;;;;5.25;3.20;;;1.50;99.90;;;;;;5032946;28;20434;-52
2023/01/12 06:52:38;;;;;;;5.85;3.28;;;1.50;99.90;;;;;;5032801;28;20112;-57
2023/01/12 06:55:04;;;;;;;7.30;3.92;;;1.50;99.90;;;;;;5032771;28;20025;-53
2023/01/12 06:57:45;;;;;;;4.55;3.97;;;1.40;99.90;;;;;;5032454;28;20472;-51
2023/01/12 07:00:12;;;;;;;6.13;3.92;;;1.30;99.90;;;;;;5032843;28;20026;-54
2023/01/12 07:02:38;;;;;;;9.57;4.13;;;1.20;99.90;;;;;;5032657;28;20112;-57
2023/01/12 07:05:04;;;;;;;10.38;4.57;;;1.20;99.90;;;;;;5031275;28;20409;-55
2023/01/12 07:07:30;;;;;;;4.43;4.03;;;1.20;99.90;;;;;;5032664;28;20025;-50
2023/01/12 07:09:55;;;;;;;8.93;4.80;;;1.20;99.90;;;;;;5032534;28;20546;-56
2023/01/12 07:12:21;;;;;;;5.68;4.43;;;1.20;99.90;;;;;;5032622;28;20029;-50
2023/01/12 07:14:47;;;;;;;4.50;3.85;;;1.20;99.90;;;;;;5032158;28;20036;-54
2023/01/12 07:17:13;;;;;;;7.15;3.72;;;1.20;99.90;;;;;;5032616;28;20038;-51
2023/01/12 07:19:38;;;;;;;13.05;4.43;;;1.20;99.90;;;;;;5032240;28;20041;-52
2023/01/12 07:22:04;;;;;;;11.02;4.63;;;1.20;99.90;;;;;;5032131;28;20025;-55
2023/01/12 07:24:30;;;;;;;10.60;5.22;;;1.30;99.90;;;;;;5032297;28;20021;-53
2023/01/12 07:26:57;;;;;;;9.45;4.88;;;1.30;99.90;;;;;;5032561;28;20040;-56
2023/01/12 07:29:23;;;;;;;10.57;5.85;;;1.50;99.90;;;;;;5032281;28;20044;-52
2023/01/12 07:31:49;;;;;;;27.85;15.73;;;1.50;99.90;;;;;;5031802;28;20018;-52
2023/01/12 07:34:15;;;;;;;17.33;10.38;;;1.60;99.90;;;;;;5032219;28;20028;-53
2023/01/12 07:36:41;;;;;;;47.10;25.52;;;1.70;99.90;;;;;;5032207;28;20025;-51
2023/01/12 07:39:08;;;;;;;18.85;10.45;;;1.70;99.90;;;;;;5031836;28;20025;-54
2023/01/12 07:44:20;;;;;;;19.27;11.13;;;1.80;99.90;;;;;;5010392;28;20038;-51
2023/01/12 07:46:45;;;;;;;21.08;14.13;;;1.90;99.90;;;;;;5032094;28;20029;-50
2023/01/12 07:49:11;;;;;;;23.77;14.68;;;2.00;99.90;;;;;;5031619;28;20360;-51
2023/01/12 07:51:36;;;;;;;17.42;13.45;;;2.00;99.90;;;;;;5031863;28;20029;-50
2023/01/12 07:54:02;;;;;;;18.80;13.15;;;2.10;99.90;;;;;;5031979;28;20025;-51
2023/01/12 07:56:28;;;;;;;20.88;10.65;;;2.20;99.90;;;;;;5031902;28;20568;-51
2023/01/12 07:58:53;;;;;;;16.83;9.07;;;2.30;99.90;;;;;;5031876;28;20033;-51
2023/01/12 08:01:19;;;;;;;23.05;10.85;;;2.40;99.90;;;;;;5031874;28;20037;-55
2023/01/12 08:03:45;;;;;;;15.93;11.30;;;2.50;99.90;;;;;;5031874;28;20112;-52
2023/01/12 08:06:10;;;;;;;9.07;6.28;;;2.60;99.90;;;;;;5030070;28;20499;-50
2023/01/12 08:08:36;;;;;;;18.08;11.00;;;2.50;99.90;;;;;;5031686;28;20033;-56
2023/01/12 08:11:03;;;;;;;18.58;12.63;;;2.60;99.90;;;;;;5031798;28;20086;-52
2023/01/12 08:13:29;;;;;;;23.98;13.93;;;2.60;99.90;;;;;;5031803;28;20048;-56
2023/01/12 08:16:01;;;;;;;15.98;11.32;;;2.70;99.90;;;;;;5031640;28;20451;-58
2023/01/12 08:18:50;;;;;;;15.65;11.05;;;2.80;99.90;;;;;;5031714;28;20080;-55
2023/01/12 08:21:21;;;;;;;17.52;11.48;;;3.00;99.90;;;;;;5030841;28;20394;-55
2023/01/12 08:23:51;;;;;;;14.15;8.35;;;3.10;99.90;;;;;;5030645;28;20049;-56
2023/01/12 08:26:23;;;;;;;12.75;7.28;;;3.20;99.90;;;;;;5031092;28;20262;-56
2023/01/12 08:29:11;;;;;;;9.00;6.57;;;3.20;99.90;;;;;;5031635;28;20025;-55
2023/01/12 08:31:37;;;;;;;7.18;5.32;;;3.40;99.90;;;;;;5031558;28;20414;-54
2023/01/12 08:34:05;;;;;;;8.93;4.30;;;3.50;99.90;;;;;;5031743;28;20074;-54
2023/01/12 08:36:31;;;;;;;12.68;4.65;;;3.60;99.90;;;;;;5031478;28;20022;-54
2023/01/12 08:38:57;;;;;;;8.25;5.10;;;3.60;99.90;;;;;;5030183;28;20468;-53
2023/01/12 08:41:32;;;;;;;6.28;5.00;;;3.70;99.90;;;;;;5029840;28;20032;-50
2023/01/12 08:44:09;;;;;;;9.20;4.25;;;3.60;99.90;;;;;;5031371;28;20437;-55
2023/01/12 08:46:38;;;;;;;10.57;5.07;;;3.70;99.90;;;;;;5030977;28;20053;-52
2023/01/12 08:49:10;;;;;;;11.85;4.90;;;3.80;99.90;;;;;;5031443;28;20033;-52
2023/01/12 08:51:38;;;;;;;5.75;4.60;;;3.90;99.90;;;;;;5050630;28;20025;-54
2023/01/12 08:54:06;;;;;;;6.32;5.45;;;4.00;99.90;;;;;;5035278;28;20045;-52
2023/01/12 08:56:32;;;;;;;9.50;4.30;;;4.10;99.90;;;;;;5035246;28;20025;-52
2023/01/12 08:58:57;;;;;;;8.13;5.70;;;4.20;99.90;;;;;;5034627;28;20444;-55
2023/01/12 09:01:23;;;;;;;9.80;5.63;;;4.40;99.90;;;;;;5035166;28;20116;-53
2023/01/12 09:03:49;;;;;;;9.70;5.82;;;4.40;99.90;;;;;;5034908;28;20021;-51
2023/01/12 09:06:24;;;;;;;20.40;10.57;;;4.40;99.90;;;;;;5034934;28;20068;-50
2023/01/12 09:08:55;;;;;;;20.02;11.35;;;4.40;99.90;;;;;;5034767;28;20025;-53
2023/01/12 09:11:22;;;;;;;13.60;7.88;;;4.50;99.90;;;;;;5034851;28;20026;-52
2023/01/12 09:13:47;;;;;;;26.30;13.25;;;4.60;99.90;;;;;;5034946;28;20534;-50
2023/01/12 09:16:14;;;;;;;20.92;9.88;;;4.60;99.90;;;;;;5034308;28;20097;-52
2023/01/12 09:18:41;;;;;;;17.83;11.10;;;4.70;99.90;;;;;;5034683;28;20091;-56
2023/01/12 09:21:12;;;;;;;11.63;8.75;;;4.80;99.90;;;;;;5033261;28;20040;-57
2023/01/12 09:23:38;;;;;;;16.23;9.43;;;4.80;99.90;;;;;;5034626;28;20587;-57
2023/01/12 09:26:06;;;;;;;6.88;6.00;;;4.90;99.90;;;;;;5034528;28;20079;-56
2023/01/12 09:28:33;;;;;;;6.88;5.00;;;5.10;99.90;;;;;;5034390;28;20029;-57
2023/01/12 09:31:04;;;;;;;12.35;6.57;;;5.30;99.90;;;;;;5034305;28;20029;-57
2023/01/12 09:33:31;;;;;;;14.38;7.15;;;5.50;99.90;;;;;;5034006;28;20033;-56
2023/01/12 09:36:01;;;;;;;6.97;4.60;;;5.80;99.90;;;;;;5034410;28;20124;-54
2023/01/12 09:38:26;;;;;;;34.67;15.82;;;6.20;99.90;;;;;;5034345;28;20024;-52
2023/01/12 09:40:52;;;;;;;7.57;4.57;;;6.30;99.90;;;;;;5033031;28;20487;-58
2023/01/12 09:46:57;;;;;;;7.45;3.53;;;6.80;99.90;;;;;;5033745;28;20546;-52
2023/01/12 09:49:05;;;;;;;22.15;9.52;;;7.50;99.90;;;;;;5033501;28;20042;-53
2023/01/12 09:51:39;;;;;;;6.47;3.95;;;7.60;99.90;;;;;;5032578;28;20026;-51
2023/01/12 09:54:05;;;;;;;5.20;2.72;;;7.90;99.90;;;;;;5033949;28;20026;-54
2023/01/12 09:56:39;;;;;;;7.18;4.18;;;8.10;99.90;;;;;;5034044;28;20048;-54
2023/01/12 09:59:24;;;;;;;18.75;9.95;;;8.10;99.90;;;;;;5034043;28;20476;-53
2023/01/12 10:01:51;;;;;;;5.38;4.30;;;8.00;99.90;;;;;;5033670;28;20037;-52
2023/01/12 10:04:17;;;;;;;8.40;4.00;;;8.10;99.90;;;;;;5033746;28;20460;-51
2023/01/12 10:06:43;;;;;;;4.65;3.40;;;8.10;99.90;;;;;;5033452;28;20038;-51
2023/01/12 10:09:20;;;;;;;8.68;4.38;;;8.00;99.90;;;;;;5033776;28;20022;-55
2023/01/12 10:12:20;;;;;;;8.05;4.18;;;8.00;99.90;;;;;;5033772;28;20025;-54
2023/01/12 10:15:13;;;;;;;6.15;3.53;;;8.00;99.90;;;;;;5033471;28;20021;-54
2023/01/12 10:17:49;;;;;;;20.55;8.60;;;8.00;99.90;;;;;;5032307;28;20479;-53
2023/01/12 10:20:28;;;;;;;13.70;7.35;;;7.90;99.90;;;;;;5033554;28;20033;-51
2023/01/12 10:23:00;;;;;;;14.45;8.82;;;7.60;99.90;;;;;;5033454;28;20104;-52
2023/01/12 10:25:29;;;;;;;11.20;6.07;;;7.80;99.90;;;;;;5048111;28;20022;-55
2023/01/12 10:27:57;;;;;;;7.35;4.70;;;8.10;99.90;;;;;;5032284;28;20726;-52
2023/01/12 10:30:31;;;;;;;4.25;3.08;;;8.60;99.90;;;;;;5033439;28;20095;-53
2023/01/12 10:33:17;;;;;;;;;;;9.50;99.90;;;;;;5034159;28;20407;-54
2023/01/12 10:35:59;;;;;;;5.68;2.85;;;10.10;99.90;;;;;;5033425;28;19905;-57
2023/01/12 10:38:32;;;;;;;4.07;2.72;;;10.80;99.90;;;;;;5033454;28;20021;-51
2023/01/12 10:41:05;;;;;;;3.05;2.63;;;11.70;99.00;;;;;;5032015;28;20029;-56
2023/01/12 10:43:32;;;;;;;5.50;3.58;;;11.90;98.20;;;;;;5032081;28;20078;-56
2023/01/12 10:46:10;;;;;;;6.60;3.15;;;11.90;97.30;;;;;;5032360;28;20175;-55
2023/01/12 10:48:38;;;;;;;3.58;2.30;;;11.90;96.90;;;;;;5017108;28;20371;-53
2023/01/12 10:51:25;;;;;;;10.25;4.28;;;12.00;97.70;;;;;;5017758;28;20040;-57
2023/01/12 10:54:09;;;;;;;127.88;42.03;;;11.80;98.40;;;;;;5002533;28;20385;-56
2023/01/12 10:57:02;;;;;;;8.55;3.10;;;11.20;99.30;;;;;;5011440;28;20038;-57
2023/01/12 10:59:31;;;;;;;4.40;2.35;;;11.10;99.10;;;;;;4999074;28;20045;-58
2023/01/12 11:02:12;;;;;;;9.13;2.67;;;10.80;98.90;;;;;;5021408;28;20067;-56
2023/01/12 11:04:41;;;;;;;6.28;2.88;;;10.40;98.50;;;;;;5036934;28;20033;-56
2023/01/12 11:07:25;;;;;;;5.25;2.05;;;10.30;99.90;;;;;;5008710;28;20030;-58
2023/01/12 11:09:52;;;;;;;3.15;2.42;;;10.10;99.90;;;;;;5006282;28;20126;-59
2023/01/12 11:12:30;;;;;;;4.40;2.75;;;9.80;99.90;;;;;;5006920;28;20480;-55
2023/01/12 11:15:13;;;;;;;7.03;3.33;;;9.50;99.90;;;;;;5016679;28;20046;-56
2023/01/12 11:17:43;;;;;;;4.30;3.30;;;9.10;99.90;;;;;;5001242;28;20428;-53
2023/01/12 11:20:36;;;;;;;7.80;4.25;;;8.80;99.90;;;;;;5007463;28;20022;-56
2023/01/12 11:23:09;;;;;;;5.93;3.33;;;8.50;99.90;;;;;;5021509;28;20511;-54
2023/01/12 11:25:45;;;;;;;6.30;3.13;;;8.40;99.90;;;;;;5005573;28;20034;-54
2023/01/12 11:28:29;;;;;;;8.32;3.47;;;8.10;99.90;;;;;;5019050;28;20095;-54
2023/01/12 11:31:11;;;;;;;5.18;2.78;;;8.10;99.90;;;;;;5014600;28;20044;-54
2023/01/12 11:33:43;;;;;;;4.78;3.05;;;8.00;99.90;;;;;;5003692;28;20022;-55
2023/01/12 11:36:14;;;;;;;107.80;45.58;;;8.10;99.90;;;;;;5002636;28;20034;-52
2023/01/12 11:39:01;;;;;;;13.55;7.00;;;8.00;99.90;;;;;;5001115;28;20088;-57
2023/01/12 11:41:40;;;;;;;21.25;10.07;;;8.00;99.90;;;;;;5002062;28;20026;-54
2023/01/12 11:44:31;;;;;;;19.27;9.73;;;8.00;99.90;;;;;;5004007;28;20034;-50
2023/01/12 11:47:14;;;;;;;19.58;8.38;;;8.10;99.90;;;;;;5031868;28;20037;-55
2023/01/12 11:50:05;;;;;;;28.87;15.93;;;8.10;99.90;;;;;;5031855;28;20029;-53
2023/01/12 11:52:31;;;;;;;18.27;10.70;;;8.00;99.90;;;;;;5031940;28;20052;-55
2023/01/12 11:54:57;;;;;;;18.95;12.50;;;7.90;99.90;;;;;;5031884;28;20036;-52
2023/01/12 11:57:52;;;;;;;5.00;3.60;;;8.00;99.90;;;;;;5031398;28;20026;-55
2023/01/12 12:00:42;;;;;;;16.65;10.75;;;8.10;99.90;;;;;;5018081;28;20432;-55
2023/01/12 12:03:26;;;;;;;3.47;2.92;;;8.20;99.90;;;;;;5031721;28;20040;-56
2023/01/12 12:06:01;;;;;;;10.88;5.68;;;8.30;99.90;;;;;;5031621;28;20025;-54
2023/01/12 12:08:45;;;;;;;4.30;2.75;;;8.40;99.90;;;;;;5030869;28;20022;-55
2023/01/12 12:11:33;;;;;;;3.53;2.17;;;8.40;99.90;;;;;;5030803;28;20060;-53
2023/01/12 12:14:19;;;;;;;7.50;2.70;;;8.40;99.90;;;;;;5031767;28;20036;-53
2023/01/12 12:17:02;;;;;;;4.85;2.45;;;8.40;99.90;;;;;;5029401;28;20519;-51
2023/01/12 12:19:58;;;;;;;5.38;3.63;;;8.30;99.90;;;;;;5030860;28;20121;-51
2023/01/12 12:23:06;;;;;;;6.65;3.40;;;8.30;99.90;;;;;;5030549;28;20024;-54
2023/01/12 12:25:46;;;;;;;6.82;3.10;;;8.30;99.90;;;;;;5031515;28;20095;-53
2023/01/12 12:28:30;;;;;;;8.80;2.28;;;8.40;99.90;;;;;;5035517;28;20018;-55
2023/01/12 12:31:21;;;;;;;6.68;4.43;;;8.50;99.90;;;;;;5035674;28;20026;-57
2023/01/12 12:34:20;;;;;;;3.47;2.85;;;8.70;99.90;;;;;;5034318;28;20507;-55
2023/01/12 12:37:18;;;;;;;4.13;2.83;;;8.90;99.90;;;;;;5035425;28;20031;-51
2023/01/12 12:39:56;;;;;;;4.32;2.53;;;8.90;99.90;;;;;;5034119;28;20044;-55
2023/01/12 12:45:30;;;;;;;8.13;2.50;;;8.90;99.90;;;;;;5035038;28;20056;-52
2023/01/12 12:48:01;;;;;;;4.07;2.03;;;8.90;99.90;;;;;;5035192;28;20028;-54
2023/01/12 12:50:29;;;;;;;5.55;2.22;;;8.90;99.90;;;;;;5035259;28;20030;-56
2023/01/12 12:53:18;;;;;;;62.13;22.73;;;8.80;99.90;;;;;;5034913;28;20027;-57
2023/01/12 12:55:45;;;;;;;134.55;70.13;;;8.80;99.90;;;;;;5034867;28;20025;-55
2023/01/12 12:58:20;;;;;;;1999.90;993.38;;;8.80;99.90;;;;;;5035048;28;20060;-53
2023/01/12 13:00:46;;;;;;;468.70;222.25;;;8.90;99.90;;;;;;5034573;28;20112;-54
2023/01/12 13:03:39;;;;;;;195.10;76.38;;;8.90;99.90;;;;;;5034669;28;20029;-54
2023/01/12 13:06:35;;;;;;;12.73;6.63;;;9.10;99.90;;;;;;5034712;28;20120;-54
2023/01/12 13:09:26;;;;;;;12.82;5.72;;;9.40;99.90;;;;;;5034822;28;20257;-57
2023/01/12 13:11:58;;;;;;;14.70;8.40;;;9.60;99.90;;;;;;5033386;28;20025;-56
2023/01/12 13:14:34;;;;;;;9.30;5.80;;;9.70;99.90;;;;;;5031712;28;20038;-53
2023/01/12 13:17:00;;;;;;;8.73;3.15;;;9.50;99.90;;;;;;5031130;28;20103;-51
2023/01/12 13:19:40;;;;;;;22.05;6.65;;;9.30;99.90;;;;;;5034350;28;20417;-56
2023/01/12 13:22:31;;;;;;;5.78;2.70;;;9.50;99.90;;;;;;5034270;28;20037;-50
2023/01/12 13:25:08;;;;;;;5.07;2.67;;;9.60;99.90;;;;;;5034081;28;20124;-56
2023/01/12 13:27:59;;;;;;;3.47;2.50;;;9.50;99.90;;;;;;5034253;28;20030;-56
2023/01/12 13:30:27;;;;;;;4.47;2.90;;;9.60;99.90;;;;;;5034423;28;20083;-52
2023/01/12 13:33:14;;;;;;;9.68;3.05;;;9.60;99.90;;;;;;5034326;28;20025;-54
2023/01/12 13:35:43;;;;;;;4.07;2.80;;;10.00;99.90;;;;;;5033671;28;20021;-53
2023/01/12 13:38:33;;;;;;;7.03;3.28;;;9.90;99.90;;;;;;5034388;28;20028;-54
2023/01/12 13:43:13;;;;;;;6.10;3.38;;;10.20;99.90;;;;;;5034115;28;20033;-57
2023/01/12 13:44:02;;;;;;;6.13;3.30;;;10.10;99.90;;;;;;5034120;28;20025;-57
2023/01/12 13:46:51;;;;;;;5.82;4.25;;;9.80;99.90;;;;;;5034113;28;20056;-53